createdAt,value
2022-12-05T00:00:34.009Z,97310.59
2022-12-05T00:03:21.843Z,97314.97
2022-12-05T00:06:08.825Z,97332.66
2022-12-05T00:08:56.590Z,97336.00
2022-12-05T00:11:45.270Z,97328.31
2022-12-05T00:14:32.316Z,97340.06
2022-12-05T00:17:19.616Z,97344.03
2022-12-05T00:20:08.025Z,97351.59
2022-12-05T00:22:54.933Z,97355.03
2022-12-05T00:25:42.225Z,97370.44
2022-12-05T00:28:29.223Z,97374.38
2022-12-05T00:31:19.569Z,97381.25
2022-12-05T00:34:06.772Z,97380.59
2022-12-05T00:36:53.744Z,97380.06
2022-12-05T00:39:40.669Z,97381.44
2022-12-05T00:42:27.632Z,97375.31
2022-12-05T00:45:14.560Z,97374.72
2022-12-05T00:48:01.529Z,97379.88
2022-12-05T00:50:48.468Z,97379.59
2022-12-05T00:53:36.405Z,97377.53
2022-12-05T00:56:24.576Z,97392.06
2022-12-05T00:59:17.986Z,97403.59
2022-12-05T01:02:04.893Z,97412.13
2022-12-05T01:04:51.987Z,97421.09
2022-12-05T01:07:39.002Z,97428.25
2022-12-05T01:10:26.008Z,97423.56
2022-12-05T01:13:12.922Z,97422.53
2022-12-05T01:16:00.265Z,97418.31
2022-12-05T01:18:47.512Z,97432.41
2022-12-05T01:21:34.672Z,97458.50
2022-12-05T01:24:22.395Z,97459.94
2022-12-05T01:27:09.398Z,97449.78
2022-12-05T01:29:56.482Z,97448.22
2022-12-05T01:32:43.615Z,97443.34
2022-12-05T01:35:32.484Z,97435.97
2022-12-05T01:38:19.438Z,97448.22
2022-12-05T01:41:09.161Z,97448.66
2022-12-05T01:43:59.844Z,97458.25
2022-12-05T01:46:50.109Z,97455.06
2022-12-05T01:49:41.188Z,97452.97
2022-12-05T01:52:31.112Z,97464.72
2022-12-05T01:55:19.319Z,97457.16
2022-12-05T01:58:09.585Z,97457.38
2022-12-05T02:00:56.679Z,97451.75
2022-12-05T02:03:45.057Z,97437.53
2022-12-05T02:06:33.316Z,97442.41
2022-12-05T02:09:21.052Z,97437.00
2022-12-05T02:12:07.993Z,97440.34
2022-12-05T02:15:32.207Z,97439.69
2022-12-05T02:18:33.839Z,97429.97
2022-12-05T02:22:10.020Z,97431.72
2022-12-05T02:25:39.707Z,97447.94
2022-12-05T02:29:15.283Z,97456.16
2022-12-05T02:32:35.665Z,97441.91
2022-12-05T02:35:34.485Z,97454.50
2022-12-05T02:39:06.880Z,97444.53
2022-12-05T02:42:10.200Z,97448.69
2022-12-05T02:45:07.351Z,97446.72
2022-12-05T02:47:55.006Z,97443.38
2022-12-05T02:50:43.248Z,97448.59
2022-12-05T02:53:31.664Z,97449.09
2022-12-05T02:56:19.816Z,97436.81
2022-12-05T02:59:07.976Z,97442.94
2022-12-05T03:01:55.405Z,97449.19
2022-12-05T03:04:42.681Z,97449.50
2022-12-05T03:07:31.665Z,97463.38
2022-12-05T03:10:23.747Z,97463.91
2022-12-05T03:13:16.073Z,97464.44
2022-12-05T03:16:09.660Z,97454.25
2022-12-05T03:19:03.477Z,97457.16
2022-12-05T03:21:58.476Z,97451.47
2022-12-05T03:24:45.492Z,97451.88
2022-12-05T03:27:49.870Z,97459.47
2022-12-05T03:30:39.524Z,97468.41
2022-12-05T03:33:31.980Z,97459.28
2022-12-05T03:36:26.545Z,97461.56
2022-12-05T03:39:44.812Z,97463.00
2022-12-05T03:42:35.285Z,97469.38
2022-12-05T03:45:31.794Z,97464.47
2022-12-05T03:49:00.863Z,97473.47
2022-12-05T03:51:55.797Z,97478.28
2022-12-05T03:54:47.084Z,97481.81
2022-12-05T03:57:43.855Z,97480.06
2022-12-05T04:00:36.184Z,97486.13
2022-12-05T04:03:45.485Z,97498.81
2022-12-05T04:06:35.565Z,97492.34
2022-12-05T04:09:37.408Z,97491.53
2022-12-05T04:12:28.472Z,97505.66
2022-12-05T04:15:23.805Z,97504.22
2022-12-05T04:18:11.768Z,97502.00
2022-12-05T04:21:19.605Z,97507.00
2022-12-05T04:24:45.150Z,97507.34
2022-12-05T04:28:09.901Z,97523.56
2022-12-05T04:31:16.462Z,97523.94
2022-12-05T04:34:07.675Z,97532.13
2022-12-05T04:37:00.784Z,97528.97
2022-12-05T04:39:54.467Z,97525.56
2022-12-05T04:42:43.357Z,97531.19
2022-12-05T04:45:32.881Z,97511.00
2022-12-05T04:48:23.001Z,97507.88
2022-12-05T04:51:16.603Z,97521.81
2022-12-05T04:54:27.464Z,97526.59
2022-12-05T04:57:31.762Z,97534.91
2022-12-05T05:00:19.146Z,97524.31
2022-12-05T05:03:21.163Z,97526.50
2022-12-05T05:06:11.532Z,97525.84
2022-12-05T05:08:58.844Z,97537.09
2022-12-05T05:11:45.919Z,97548.44
2022-12-05T05:14:32.899Z,97552.31
2022-12-05T05:17:19.848Z,97541.28
2022-12-05T05:20:27.150Z,97549.59
2022-12-05T05:23:14.621Z,97565.94
2022-12-05T05:26:01.481Z,97563.19
2022-12-05T05:28:48.896Z,97566.63
2022-12-05T05:31:36.597Z,97559.97
2022-12-05T05:34:24.081Z,97560.94
2022-12-05T05:37:10.960Z,97566.19
2022-12-05T05:39:58.154Z,97565.16
2022-12-05T05:42:49.980Z,97578.69
2022-12-05T05:45:37.045Z,97572.31
2022-12-05T05:48:23.963Z,97577.97
2022-12-05T05:51:12.743Z,97572.38
2022-12-05T05:54:00.729Z,97569.38
2022-12-05T05:56:47.612Z,97573.34
2022-12-05T05:59:34.716Z,97576.84
2022-12-05T06:02:21.682Z,97588.00
2022-12-05T06:05:09.060Z,97592.16
2022-12-05T06:07:56.606Z,97597.38
2022-12-05T06:10:43.599Z,97611.75
2022-12-05T06:13:30.544Z,97611.03
2022-12-05T06:16:21.262Z,97613.22
2022-12-05T06:19:08.316Z,97609.88
2022-12-05T06:21:55.196Z,97623.97
2022-12-05T06:24:42.217Z,97630.63
2022-12-05T06:27:31.652Z,97648.81
2022-12-05T06:30:18.759Z,97651.50
2022-12-05T06:33:05.681Z,97650.25
2022-12-05T06:36:06.317Z,97645.06
2022-12-05T06:38:53.249Z,97659.25
2022-12-05T06:41:40.191Z,97667.72
2022-12-05T06:44:28.706Z,97682.31
2022-12-05T06:47:15.699Z,97681.56
2022-12-05T06:50:02.632Z,97690.94
2022-12-05T06:52:50.749Z,97693.56
2022-12-05T06:55:37.688Z,97694.84
2022-12-05T06:58:25.281Z,97699.75
2022-12-05T07:01:42.319Z,97706.28
2022-12-05T07:04:29.577Z,97704.88
2022-12-05T07:07:16.491Z,97701.38
2022-12-05T07:10:05.055Z,97704.31
2022-12-05T07:12:51.993Z,97706.34
2022-12-05T07:15:38.963Z,97708.56
2022-12-05T07:18:26.757Z,97716.81
2022-12-05T07:21:16.337Z,97710.69
2022-12-05T07:24:03.446Z,97723.41
2022-12-05T07:26:50.368Z,97726.31
2022-12-05T07:29:37.278Z,97729.09
2022-12-05T07:32:24.255Z,97728.25
2022-12-05T07:35:11.168Z,97722.44
2022-12-05T07:37:58.825Z,97730.34
2022-12-05T07:40:45.738Z,97742.03
2022-12-05T07:43:32.769Z,97754.19
2022-12-05T07:46:20.051Z,97755.72
2022-12-05T07:49:08.030Z,97756.81
2022-12-05T07:51:54.948Z,97758.00
2022-12-05T07:54:41.876Z,97772.53
2022-12-05T07:57:32.188Z,97777.19
2022-12-05T08:00:20.063Z,97778.16
2022-12-05T08:03:06.972Z,97768.75
2022-12-05T08:05:54.013Z,97769.00
2022-12-05T08:08:41.109Z,97785.47
2022-12-05T08:11:30.350Z,97787.94
2022-12-05T08:14:17.312Z,97786.75
2022-12-05T08:17:04.947Z,97783.47
2022-12-05T08:19:51.963Z,97773.38
2022-12-05T08:22:38.988Z,97785.16
2022-12-05T08:25:25.953Z,97790.00
2022-12-05T08:28:12.871Z,97787.00
2022-12-05T08:31:19.941Z,97796.53
2022-12-05T08:34:06.927Z,97789.66
2022-12-05T08:36:53.784Z,97804.59
2022-12-05T08:39:40.708Z,97809.56
2022-12-05T08:42:27.613Z,97809.19
2022-12-05T08:45:14.508Z,97814.50
2022-12-05T08:48:01.422Z,97819.47
2022-12-05T08:50:48.471Z,97824.28
2022-12-05T08:53:42.498Z,97810.00
2022-12-05T08:56:32.941Z,97825.25
2022-12-05T08:59:19.982Z,97820.38
2022-12-05T09:02:06.958Z,97810.50
2022-12-05T09:04:54.339Z,97809.72
2022-12-05T09:07:41.377Z,97815.88
2022-12-05T09:10:28.384Z,97813.13
2022-12-05T09:13:15.326Z,97801.56
2022-12-05T09:16:13.771Z,97802.88
2022-12-05T09:19:00.884Z,97802.31
2022-12-05T09:21:47.803Z,97816.50
2022-12-05T09:24:35.097Z,97806.56
2022-12-05T09:27:22.005Z,97810.25
2022-12-05T09:30:09.834Z,97812.72
2022-12-05T09:32:56.758Z,97804.56
2022-12-05T09:35:43.983Z,97799.22
2022-12-05T09:38:30.957Z,97806.63
2022-12-05T09:42:13.300Z,97812.53
2022-12-05T09:45:30.268Z,97807.88
2022-12-05T09:48:21.735Z,97801.00
2022-12-05T09:51:10.516Z,97801.28
2022-12-05T09:53:57.632Z,97801.28
2022-12-05T09:56:48.809Z,97796.09
2022-12-05T09:59:35.900Z,97824.09
2022-12-05T10:03:01.330Z,97826.31
2022-12-05T10:06:15.577Z,97828.47
2022-12-05T10:09:45.413Z,97825.63
2022-12-05T10:12:58.699Z,97817.50
2022-12-05T10:15:55.738Z,97827.09
2022-12-05T10:18:48.808Z,97821.69
2022-12-05T10:21:53.640Z,97812.13
2022-12-05T10:24:52.050Z,97807.78
2022-12-05T10:27:45.525Z,97795.50
2022-12-05T10:30:36.022Z,97797.44
2022-12-05T10:33:24.160Z,97787.25
2022-12-05T10:36:15.131Z,97778.97
2022-12-05T10:39:04.780Z,97771.75
2022-12-05T10:41:56.791Z,97779.03
2022-12-05T10:44:45.216Z,97787.84
2022-12-05T10:47:32.895Z,97784.22
2022-12-05T10:50:33.917Z,97790.19
2022-12-05T10:53:32.675Z,97789.16
2022-12-05T10:56:58.047Z,97800.06
2022-12-05T10:59:47.205Z,97798.34
2022-12-05T11:02:36.836Z,97800.81
2022-12-05T11:05:32.228Z,97798.09
2022-12-05T11:08:55.953Z,97793.44
2022-12-05T11:11:34.775Z,97794.19
2022-12-05T11:14:25.363Z,97795.31
2022-12-05T11:17:26.276Z,97794.69
2022-12-05T11:20:40.141Z,97794.34
2022-12-05T11:23:30.965Z,97799.97
2022-12-05T11:26:36.989Z,97789.72
2022-12-05T11:29:39.551Z,97789.19
2022-12-05T11:32:29.857Z,97784.75
2022-12-05T11:35:26.393Z,97788.84
2022-12-05T11:38:15.729Z,97798.41
2022-12-05T11:41:25.885Z,97801.13
2022-12-05T11:45:01.971Z,97789.72
2022-12-05T11:48:29.838Z,97787.53
2022-12-05T11:51:48.009Z,97784.00
2022-12-05T11:55:15.862Z,97792.38
2022-12-05T11:58:43.078Z,97788.94
2022-12-05T12:02:08.186Z,97796.00
2022-12-05T12:05:18.004Z,97780.34
2022-12-05T12:08:45.643Z,97779.84
2022-12-05T12:11:52.185Z,97783.00
2022-12-05T12:15:21.012Z,97780.34
2022-12-05T12:18:53.150Z,97784.06
2022-12-05T12:22:27.267Z,97782.19
2022-12-05T12:25:56.034Z,97778.25
2022-12-05T12:28:53.994Z,97776.09
2022-12-05T12:32:14.872Z,97773.75
2022-12-05T12:35:33.927Z,97775.06
2022-12-05T12:39:10.377Z,97773.59
2022-12-05T12:56:08.542Z,97756.50
2022-12-05T12:59:21.405Z,97756.84
2022-12-05T13:02:31.867Z,97760.97
2022-12-05T13:05:46.813Z,97754.97
2022-12-05T13:09:00.568Z,97764.84
2022-12-05T13:11:50.649Z,97766.09
2022-12-05T13:14:41.864Z,97760.69
2022-12-05T13:17:32.329Z,97762.66
2022-12-05T13:20:23.039Z,97763.44
2022-12-05T13:23:15.264Z,97767.41
2022-12-05T13:26:09.729Z,97769.19
2022-12-05T13:29:02.693Z,97770.06
2022-12-05T13:31:49.658Z,97774.19
2022-12-05T13:34:49.438Z,97777.22
2022-12-05T13:37:55.640Z,97779.75
2022-12-05T13:41:10.774Z,97782.03
2022-12-05T13:44:06.469Z,97777.75
2022-12-05T13:46:54.272Z,97786.19
2022-12-05T13:49:49.924Z,97795.38
2022-12-05T13:52:49.256Z,97799.69
2022-12-05T13:55:55.230Z,97795.09
2022-12-05T13:58:58.874Z,97798.34
2022-12-05T14:01:55.430Z,97802.06
2022-12-05T14:04:50.908Z,97798.53
2022-12-05T14:07:49.646Z,97795.22
2022-12-05T14:10:36.461Z,97797.19
2022-12-05T14:13:45.206Z,97807.06
2022-12-05T14:16:44.404Z,97811.38
2022-12-05T14:19:47.312Z,97809.19
2022-12-05T14:23:13.866Z,97805.75
2022-12-05T14:26:31.557Z,97817.16
2022-12-05T14:29:54.348Z,97821.56
2022-12-05T14:32:42.738Z,97809.22
2022-12-05T14:35:40.600Z,97819.25
2022-12-05T14:38:30.872Z,97806.34
2022-12-05T14:41:33.490Z,97809.78
2022-12-05T14:44:20.545Z,97811.25
2022-12-05T14:47:22.721Z,97810.28
2022-12-05T14:50:52.129Z,97798.50
2022-12-05T14:53:42.952Z,97797.50
2022-12-05T14:56:32.204Z,97799.41
2022-12-05T14:59:46.800Z,97807.25
2022-12-05T15:02:40.378Z,97800.34
2022-12-05T15:05:34.480Z,97792.16
2022-12-05T15:08:22.135Z,97792.69
2022-12-05T15:11:28.195Z,97785.34
2022-12-05T15:14:22.472Z,97783.09
2022-12-05T15:17:17.802Z,97780.69
2022-12-05T15:20:52.378Z,97782.19
2022-12-05T15:23:56.018Z,97779.28
2022-12-05T15:26:49.924Z,97786.31
2022-12-05T15:29:37.877Z,97793.63
2022-12-05T15:32:27.666Z,97792.69
2022-12-05T15:35:16.152Z,97789.91
2022-12-05T15:38:14.487Z,97790.63
2022-12-05T15:41:01.300Z,97787.88
2022-12-05T15:43:58.072Z,97789.69
2022-12-05T15:46:45.192Z,97788.44
2022-12-05T15:49:32.304Z,97790.34
2022-12-05T15:52:19.155Z,97791.94
2022-12-05T15:55:12.860Z,97782.59
2022-12-05T15:58:09.644Z,97794.41
2022-12-05T16:01:12.356Z,97796.22
2022-12-05T16:04:12.168Z,97801.84
2022-12-05T16:07:03.992Z,97807.19
2022-12-05T16:09:51.992Z,97799.25
2022-12-05T16:12:41.066Z,97796.91
2022-12-05T16:15:28.840Z,97796.66
2022-12-05T16:18:29.622Z,97793.16
2022-12-05T16:21:31.903Z,97795.13
2022-12-05T16:24:27.945Z,97798.56
2022-12-05T16:27:16.673Z,97796.09
2022-12-05T16:30:12.994Z,97784.78
2022-12-05T16:33:08.338Z,97799.59
2022-12-05T16:35:55.615Z,97797.19
2022-12-05T16:38:43.384Z,97789.28
2022-12-05T16:41:35.278Z,97790.75
2022-12-05T16:44:48.134Z,97797.63
2022-12-05T16:47:41.657Z,97798.13
2022-12-05T16:50:35.007Z,97791.94
2022-12-05T16:53:32.671Z,97792.44
2022-12-05T16:56:24.083Z,97789.16
2022-12-05T16:59:20.786Z,97791.38
2022-12-05T17:02:13.881Z,97783.84
2022-12-05T17:05:12.259Z,97778.91
2022-12-05T17:07:59.337Z,97778.44
2022-12-05T17:10:46.661Z,97776.72
2022-12-05T17:13:33.958Z,97785.28
2022-12-05T17:16:21.417Z,97786.38
2022-12-05T17:19:10.722Z,97788.56
2022-12-05T17:21:57.725Z,97791.81
2022-12-05T17:24:44.629Z,97781.91
2022-12-05T17:27:31.955Z,97776.06
2022-12-05T17:30:18.867Z,97776.13
2022-12-05T17:33:07.325Z,97781.41
2022-12-05T17:35:54.273Z,97785.06
2022-12-05T17:38:41.895Z,97789.81
2022-12-05T17:41:28.812Z,97791.09
2022-12-05T17:44:15.778Z,97792.66
2022-12-05T17:47:07.710Z,97790.69
2022-12-05T17:49:55.179Z,97796.38
2022-12-05T17:52:42.515Z,97791.03
2022-12-05T17:55:29.823Z,97797.16
2022-12-05T17:58:17.409Z,97802.56
2022-12-05T18:01:04.603Z,97803.41
2022-12-05T18:03:51.569Z,97812.53
2022-12-05T18:06:39.466Z,97807.19
2022-12-05T18:09:26.374Z,97808.63
2022-12-05T18:12:13.264Z,97801.22
2022-12-05T18:15:00.427Z,97801.16
2022-12-05T18:17:47.449Z,97790.91
2022-12-05T18:20:35.410Z,97789.53
2022-12-05T18:23:22.371Z,97791.59
2022-12-05T18:26:10.509Z,97798.72
2022-12-05T18:28:59.081Z,97787.16
2022-12-05T18:31:46.110Z,97784.94
2022-12-05T18:34:33.130Z,97777.56
2022-12-05T18:37:20.073Z,97766.28
2022-12-05T18:40:09.463Z,97760.75
2022-12-05T18:42:56.391Z,97758.13
2022-12-05T18:45:43.413Z,97752.25
2022-12-05T18:48:39.263Z,97758.66
2022-12-05T18:51:28.406Z,97765.03
2022-12-05T18:54:15.307Z,97768.19
2022-12-05T18:57:02.611Z,97782.94
2022-12-05T18:59:51.953Z,97788.81
2022-12-05T19:02:39.003Z,97781.94
2022-12-05T19:05:26.040Z,97765.03
2022-12-05T19:08:12.951Z,97773.94
2022-12-05T19:11:04.847Z,97772.16
2022-12-05T19:14:00.376Z,97767.25
2022-12-05T19:16:56.464Z,97765.50
2022-12-05T19:19:46.699Z,97762.63
2022-12-05T19:22:33.864Z,97771.16
2022-12-05T19:25:23.029Z,97781.31
2022-12-05T19:28:09.945Z,97793.34
2022-12-05T19:31:01.990Z,97776.69
2022-12-05T19:33:52.469Z,97776.69
2022-12-05T19:36:44.790Z,97786.72
2022-12-05T19:39:31.768Z,97789.41
2022-12-05T19:42:18.661Z,97784.78
2022-12-05T19:45:08.944Z,97782.56
2022-12-05T19:47:58.164Z,97780.63
2022-12-05T19:50:45.036Z,97778.41
2022-12-05T19:53:37.659Z,97771.31
2022-12-05T19:56:25.891Z,97764.22
2022-12-05T19:59:15.757Z,97781.41
2022-12-05T20:02:02.890Z,97814.78
2022-12-05T20:04:49.822Z,97806.69
2022-12-05T20:07:36.736Z,97791.69
2022-12-05T20:10:23.620Z,97775.06
2022-12-05T20:13:38.525Z,97753.72
2022-12-05T20:16:19.648Z,97770.19
2022-12-05T20:19:06.828Z,97774.16
2022-12-05T20:21:55.399Z,97774.63
2022-12-05T20:24:42.301Z,97769.50
2022-12-05T20:27:29.166Z,97779.56
2022-12-05T20:30:16.078Z,97778.16
2022-12-05T20:33:02.985Z,97783.56
2022-12-05T20:35:49.854Z,97789.47
2022-12-05T20:38:37.047Z,97774.75
2022-12-05T20:41:24.566Z,97775.03
2022-12-05T20:44:14.354Z,97788.22
2022-12-05T20:47:01.398Z,97785.09
2022-12-05T20:49:48.441Z,97777.00
2022-12-05T20:52:35.507Z,97777.97
2022-12-05T20:55:22.537Z,97791.22
2022-12-05T20:58:09.438Z,97789.25
2022-12-05T21:01:01.146Z,97791.69
2022-12-05T21:03:50.031Z,97792.19
2022-12-05T21:06:40.598Z,97793.91
2022-12-05T21:09:29.944Z,97784.38
2022-12-05T21:12:16.850Z,97786.81
2022-12-05T21:15:04.281Z,97794.63
2022-12-05T21:17:51.220Z,97788.50
2022-12-05T21:20:42.060Z,97785.09
2022-12-05T21:23:29.760Z,97787.53
2022-12-05T21:26:18.309Z,97789.25
2022-12-05T21:29:06.862Z,97791.94
2022-12-05T21:31:53.769Z,97801.03
2022-12-05T21:34:40.696Z,97804.91
2022-12-05T21:37:27.592Z,97797.84
2022-12-05T21:40:14.576Z,97804.66
2022-12-05T21:43:01.502Z,97795.13
2022-12-05T21:45:55.601Z,97801.97
2022-12-05T21:48:42.493Z,97801.72
2022-12-05T21:51:29.520Z,97807.34
2022-12-05T21:54:16.467Z,97805.66
2022-12-05T21:57:03.448Z,97802.47
2022-12-05T21:59:50.370Z,97797.09
2022-12-05T22:02:37.228Z,97800.50
2022-12-05T22:05:24.149Z,97809.81
2022-12-05T22:08:11.118Z,97806.84
2022-12-05T22:11:09.657Z,97811.06
2022-12-05T22:13:56.997Z,97805.66
2022-12-05T22:16:44.042Z,97808.34
2022-12-05T22:19:31.040Z,97809.09
2022-12-05T22:22:17.986Z,97810.81
2022-12-05T22:25:05.504Z,97802.72
2022-12-05T22:27:52.357Z,97798.56
2022-12-05T22:30:39.242Z,97797.09
2022-12-05T22:33:26.736Z,97794.66
2022-12-05T22:36:16.184Z,97801.75
2022-12-05T22:39:03.322Z,97798.31
2022-12-05T22:41:50.575Z,97799.31
2022-12-05T22:44:37.513Z,97804.19
2022-12-05T22:47:24.482Z,97799.06
2022-12-05T22:50:11.838Z,97799.31
2022-12-05T22:52:58.747Z,97795.63
2022-12-05T22:55:45.782Z,97788.53
2022-12-05T22:58:33.023Z,97792.22
2022-12-05T23:01:23.157Z,97786.81
2022-12-05T23:04:11.506Z,97784.38
2022-12-05T23:06:58.393Z,97790.25
2022-12-05T23:09:45.304Z,97786.31
2022-12-05T23:12:32.233Z,97795.16
2022-12-05T23:15:19.246Z,97795.41
2022-12-05T23:18:06.416Z,97784.38
2022-12-05T23:20:53.348Z,97788.03
2022-12-05T23:23:40.906Z,97783.13
2022-12-05T23:26:31.196Z,97781.44
2022-12-05T23:29:18.118Z,97771.41
2022-12-05T23:32:05.394Z,97761.63
2022-12-05T23:34:52.323Z,97763.06
2022-12-05T23:37:39.280Z,97760.38
2022-12-05T23:40:26.221Z,97752.31
2022-12-05T23:43:13.182Z,97755.97
2022-12-05T23:46:00.731Z,97757.44
2022-12-05T23:48:48.565Z,97757.19
2022-12-05T23:51:39.994Z,97762.53
2022-12-05T23:54:26.968Z,97762.53
2022-12-05T23:57:17.555Z,97761.06
